Time;durP1;ratioP1;P1;durP2;ratioP2;P2;SDS_P1;SDS_P2;PMS_P1;PMS_P2;Temp;Humidity;BMP_temperature;BMP_pressure;BME280_temperature;BME280_humidity;BME280_pressure;Samples;Min_cycle;Max_cycle;Signal;HPM_P1;HPM_P2
2021/10/26 00:01:07;;;;;;;0.60;0.60;;;;;;;-0.83;79.69;100545.91;5092517;28;20080;-69
2021/10/26 00:03:35;;;;;;;0.60;0.60;;;;;;;-0.82;80.00;100542.31;5092496;28;20198;-68
2021/10/26 00:06:00;;;;;;;0.60;0.60;;;;;;;-0.82;80.50;100538.78;5091604;28;20139;-68
2021/10/26 00:08:26;;;;;;;0.60;0.60;;;;;;;-0.80;80.20;100540.47;5074011;28;20177;-67
2021/10/26 00:10:52;;;;;;;0.60;0.60;;;;;;;-0.77;80.32;100540.38;5092317;28;20056;-68
2021/10/26 00:13:18;;;;;;;0.60;0.60;;;;;;;-0.79;80.17;100528.94;5074867;28;20070;-67
2021/10/26 00:15:43;;;;;;;0.60;0.60;;;;;;;-0.75;80.34;100521.72;5094058;28;20121;-69
2021/10/26 00:18:09;;;;;;;0.60;0.60;;;;;;;-0.74;80.45;100521.63;5076274;28;20155;-67
2021/10/26 00:20:35;;;;;;;0.60;0.60;;;;;;;-0.79;81.06;100507.69;5077125;28;20421;-68
2021/10/26 00:23:01;;;;;;;0.60;0.60;;;;;;;-0.71;80.65;100514.50;5086250;28;20083;-69
2021/10/26 00:25:27;;;;;;;0.60;0.60;;;;;;;-0.74;80.40;100513.69;5093271;28;20044;-68
2021/10/26 00:27:53;;;;;;;0.60;0.60;;;;;;;-0.72;80.71;100513.63;5096666;28;20051;-69
2021/10/26 00:30:19;;;;;;;0.60;0.60;;;;;;;-0.69;80.52;100512.66;5079890;28;20043;-68
2021/10/26 00:32:44;;;;;;;0.50;0.50;;;;;;;-0.69;81.07;100512.66;5065401;28;20071;-67
2021/10/26 00:35:10;;;;;;;0.60;0.60;;;;;;;-0.68;80.61;100506.41;5094892;28;20048;-68
2021/10/26 00:37:37;;;;;;;0.60;0.60;;;;;;;-0.68;80.80;100509.06;5075328;28;20059;-67
2021/10/26 00:40:05;;;;;;;0.52;0.52;;;;;;;-0.70;81.32;100502.94;5059250;28;20044;-69
2021/10/26 00:42:32;;;;;;;0.65;0.65;;;;;;;-0.69;81.10;100510.00;5058821;28;20109;-67
2021/10/26 00:44:58;;;;;;;0.60;0.60;;;;;;;-0.71;81.09;100501.22;5074926;28;20074;-67
2021/10/26 00:47:24;;;;;;;0.60;0.60;;;;;;;-0.73;81.84;100503.94;5073826;28;20052;-68
2021/10/26 00:49:50;;;;;;;0.60;0.60;;;;;;;-0.74;81.07;100496.88;5056976;28;20082;-67
2021/10/26 00:52:15;;;;;;;0.60;0.60;;;;;;;-0.70;81.51;100497.63;5062944;28;20055;-66
2021/10/26 00:54:41;;;;;;;0.60;0.60;;;;;;;-0.71;82.13;100501.22;5093062;28;20109;-68
2021/10/26 00:57:10;;;;;;;0.60;0.60;;;;;;;-0.74;81.34;100497.75;5110882;28;20141;-68
2021/10/26 00:59:36;;;;;;;0.60;0.60;;;;;;;-0.74;81.38;100503.06;5111493;28;20135;-67
2021/10/26 01:02:03;;;;;;;0.60;0.60;;;;;;;-0.75;81.97;100496.03;5093134;28;20055;-68
2021/10/26 01:04:29;;;;;;;0.60;0.60;;;;;;;-0.78;81.97;100489.97;5110198;28;20051;-67
2021/10/26 01:06:56;;;;;;;0.60;0.60;;;;;;;-0.81;82.37;100482.97;5093255;28;20051;-66
2021/10/26 01:09:24;;;;;;;0.60;0.60;;;;;;;-0.76;82.07;100499.63;5092890;28;20047;-67
2021/10/26 01:11:51;;;;;;;0.60;0.60;;;;;;;-0.77;82.41;100489.94;5076406;28;20047;-65
2021/10/26 01:14:17;;;;;;;0.60;0.60;;;;;;;-0.79;82.30;100491.75;5092816;28;20062;-67
2021/10/26 01:16:43;;;;;;;0.60;0.60;;;;;;;-0.79;82.49;100494.41;5092829;28;20048;-68
2021/10/26 01:19:13;;;;;;;0.60;0.60;;;;;;;-0.77;82.67;100487.28;5076206;28;20535;-67
2021/10/26 01:21:40;;;;;;;0.60;0.60;;;;;;;-0.81;82.29;100490.94;5092597;28;20051;-68
2021/10/26 01:24:05;;;;;;;0.60;0.60;;;;;;;-0.81;83.11;100480.31;5075746;28;20063;-68
2021/10/26 01:26:32;;;;;;;0.60;0.60;;;;;;;-0.84;82.70;100485.78;5075808;28;20422;-67
2021/10/26 01:28:59;;;;;;;0.60;0.60;;;;;;;-0.79;82.74;100478.50;5059380;28;20059;-66
2021/10/26 01:31:26;;;;;;;0.60;0.60;;;;;;;-0.83;82.87;100466.25;5075830;28;20459;-67
2021/10/26 01:34:07;;;;;;;0.55;0.55;;;;;;;-0.87;82.97;100469.97;5075128;28;20112;-67
2021/10/26 01:36:35;;;;;;;0.60;0.60;;;;;;;-0.84;82.88;100477.81;5059255;28;20115;-67
2021/10/26 01:39:01;;;;;;;0.60;0.60;;;;;;;-0.88;82.90;100473.53;5092431;28;20422;-67
2021/10/26 01:41:31;;;;;;;0.60;0.60;;;;;;;-0.86;83.45;100477.00;5076066;28;20066;-68
2021/10/26 01:43:57;;;;;;;0.60;0.60;;;;;;;-0.88;83.45;100473.53;5091797;28;20097;-68
2021/10/26 01:46:23;;;;;;;0.60;0.60;;;;;;;-0.86;82.97;100466.38;5110728;28;20411;-67
2021/10/26 01:48:50;;;;;;;0.60;0.60;;;;;;;-0.84;83.23;100479.56;5075116;28;20061;-68
2021/10/26 01:51:16;;;;;;;0.60;0.60;;;;;;;-0.89;83.35;100477.09;5093042;28;20046;-67
2021/10/26 01:53:42;;;;;;;0.60;0.60;;;;;;;-0.86;83.46;100460.22;5111210;28;20476;-67
2021/10/26 01:56:12;;;;;;;0.60;0.60;;;;;;;-0.87;83.85;100459.34;5093590;28;20094;-69
2021/10/26 01:58:50;;;;;;;0.60;0.60;;;;;;;-0.86;83.40;100445.16;5078113;28;20063;-67
2021/10/26 02:01:21;;;;;;;0.52;0.52;;;;;;;-0.87;84.10;100443.44;5076391;28;20048;-66
2021/10/26 02:03:48;;;;;;;0.60;0.60;;;;;;;-0.87;84.14;100438.13;5091871;28;20499;-67
2021/10/26 02:06:15;;;;;;;0.60;0.60;;;;;;;-0.85;83.63;100436.25;5075408;28;20055;-68
2021/10/26 02:08:41;;;;;;;0.60;0.60;;;;;;;-0.83;83.81;100438.88;5110708;28;20468;-67
2021/10/26 02:11:07;;;;;;;0.60;0.60;;;;;;;-0.86;84.06;100431.88;5075223;28;20051;-68
2021/10/26 02:13:33;;;;;;;0.50;0.50;;;;;;;-0.85;83.77;100430.94;5091773;28;20055;-67
2021/10/26 02:15:59;;;;;;;0.60;0.60;;;;;;;-0.85;83.88;100430.94;5091859;28;20055;-67
2021/10/26 02:18:26;;;;;;;0.60;0.60;;;;;;;-0.85;83.55;100425.63;5074626;28;20377;-65
2021/10/26 02:20:56;;;;;;;0.60;0.60;;;;;;;-0.87;83.14;100421.34;5091763;28;20146;-66
2021/10/26 02:23:22;;;;;;;0.50;0.50;;;;;;;-0.88;84.38;100424.88;5109871;28;20051;-68
2021/10/26 02:25:48;;;;;;;0.60;0.60;;;;;;;-0.90;83.65;100422.31;5074976;28;20055;-67
2021/10/26 02:28:14;;;;;;;0.60;0.60;;;;;;;-0.85;83.55;100425.63;5075853;28;20053;-68
2021/10/26 02:30:41;;;;;;;0.60;0.60;;;;;;;-0.88;83.78;100420.44;5092756;28;20055;-67
2021/10/26 02:33:08;;;;;;;0.60;0.60;;;;;;;-0.91;84.15;100419.72;5075919;28;20094;-67
2021/10/26 02:35:34;;;;;;;0.60;0.60;;;;;;;-0.89;84.01;100410.75;5091232;28;20155;-67
2021/10/26 02:38:01;;;;;;;0.60;0.60;;;;;;;-0.90;84.31;100414.34;5091392;28;20510;-67
2021/10/26 02:40:27;;;;;;;0.60;0.60;;;;;;;-0.93;83.62;100417.13;5091616;28;20389;-67
2021/10/26 02:42:54;;;;;;;0.50;0.50;;;;;;;-0.93;84.16;100410.94;5074534;28;20059;-67
2021/10/26 02:45:22;;;;;;;0.50;0.50;;;;;;;-0.93;83.65;100417.13;5091275;28;20174;-68
2021/10/26 02:47:48;;;;;;;0.50;0.50;;;;;;;-0.93;83.87;100411.81;5074209;28;20087;-66
2021/10/26 02:50:14;;;;;;;0.60;0.60;;;;;;;-0.92;83.97;100402.91;5091248;28;20054;-68
2021/10/26 02:52:40;;;;;;;0.60;0.60;;;;;;;-0.93;84.20;100402.97;5074209;28;20482;-68
2021/10/26 02:55:06;;;;;;;0.50;0.50;;;;;;;-0.97;84.15;100405.75;5091299;28;20462;-67
2021/10/26 02:57:33;;;;;;;0.60;0.60;;;;;;;-0.95;84.14;100400.41;5091253;28;20059;-68
2021/10/26 02:59:59;;;;;;;0.52;0.52;;;;;;;-0.99;84.53;100394.34;5090866;28;20058;-69
2021/10/26 03:02:25;;;;;;;0.60;0.60;;;;;;;-0.98;83.83;100387.25;5091084;28;20067;-68
2021/10/26 03:04:54;;;;;;;0.60;0.60;;;;;;;-1.00;84.77;100389.09;5057583;28;20075;-68
2021/10/26 03:07:21;;;;;;;0.60;0.60;;;;;;;-1.01;84.93;100376.75;5090408;28;20056;-66
2021/10/26 03:09:47;;;;;;;0.60;0.60;;;;;;;-1.03;84.57;100373.28;5090456;28;20052;-72
2021/10/26 03:12:13;;;;;;;0.60;0.60;;;;;;;-1.02;84.50;100375.03;5091266;28;20129;-68
2021/10/26 03:14:39;;;;;;;0.60;0.60;;;;;;;-1.04;84.80;100371.56;5057913;28;20539;-69
2021/10/26 03:17:05;;;;;;;0.60;0.60;;;;;;;-1.04;84.84;100382.16;5091868;28;20058;-68
2021/10/26 03:19:37;;;;;;;0.60;0.60;;;;;;;-1.03;84.62;100370.63;5091490;28;20059;-69
2021/10/26 03:22:03;;;;;;;0.60;0.60;;;;;;;-1.04;85.19;100376.88;5109504;28;20051;-67
2021/10/26 03:24:30;;;;;;;0.70;0.70;;;;;;;-1.06;84.84;100379.59;5090654;28;20128;-69
2021/10/26 03:26:57;;;;;;;0.60;0.60;;;;;;;-1.03;85.11;100383.88;5090633;28;20055;-67
2021/10/26 03:29:23;;;;;;;0.60;0.60;;;;;;;-1.06;84.99;100384.00;5075804;28;20078;-68
2021/10/26 03:31:53;;;;;;;0.60;0.60;;;;;;;-1.04;85.30;100382.16;5092605;28;20059;-68
2021/10/26 03:34:48;;;;;;;0.60;0.60;;;;;;;-1.05;84.51;100372.50;5007747;28;20464;-69
2021/10/26 03:37:14;;;;;;;0.60;0.60;;;;;;;-1.06;84.64;100373.41;5092049;28;20047;-68
2021/10/26 03:39:40;;;;;;;0.60;0.60;;;;;;;-1.08;84.86;100372.59;5090845;28;20502;-67
2021/10/26 03:42:06;;;;;;;0.60;0.60;;;;;;;-1.09;85.43;100368.22;5073843;28;20192;-68
2021/10/26 03:44:33;;;;;;;0.60;0.60;;;;;;;-1.11;85.70;100362.97;5057072;28;20571;-67
2021/10/26 03:46:59;;;;;;;0.60;0.60;;;;;;;-1.10;85.15;100355.88;5108781;28;20074;-68
2021/10/26 03:49:25;;;;;;;0.60;0.60;;;;;;;-1.15;84.89;100347.25;5073898;28;20196;-69
2021/10/26 03:51:52;;;;;;;0.60;0.60;;;;;;;-1.08;85.04;100348.72;5070075;28;20532;-68
2021/10/26 03:54:18;;;;;;;0.60;0.60;;;;;;;-1.10;85.33;100355.88;5020870;28;20056;-66
2021/10/26 03:56:50;;;;;;;0.50;0.50;;;;;;;-1.10;85.33;100350.56;5053916;28;20055;-66
2021/10/26 03:59:16;;;;;;;0.60;0.60;;;;;;;-1.13;85.39;100351.56;5069889;28;20056;-65
2021/10/26 04:01:42;;;;;;;0.60;0.60;;;;;;;-1.09;85.05;100357.63;5053476;28;20202;-68
2021/10/26 04:04:08;;;;;;;0.60;0.60;;;;;;;-1.13;85.48;100354.22;5054578;28;20151;-74
2021/10/26 04:06:34;;;;;;;0.60;0.60;;;;;;;-1.13;86.02;100355.97;5056016;28;20130;-74
2021/10/26 04:09:04;;;;;;;0.60;0.60;;;;;;;-1.16;85.44;100350.81;5050993;28;20119;-77
2021/10/26 04:11:39;;;;;;;0.60;0.60;;;;;;;-1.15;85.74;100352.53;5027091;28;20052;-76
2021/10/26 04:14:05;;;;;;;0.60;0.60;;;;;;;-1.19;85.79;100351.81;5055137;28;20044;-77
2021/10/26 04:16:32;;;;;;;0.60;0.60;;;;;;;-1.20;85.67;100354.53;5080695;28;20040;-77
2021/10/26 04:18:59;;;;;;;0.60;0.60;;;;;;;-1.15;85.65;100363.16;5050581;28;20060;-77
2021/10/26 04:21:25;;;;;;;0.60;0.60;;;;;;;-1.15;85.71;100352.53;5074918;28;20491;-74
2021/10/26 04:23:51;;;;;;;0.60;0.60;;;;;;;-1.17;85.94;100347.31;5050446;28;20364;-78
2021/10/26 04:26:19;;;;;;;0.70;0.70;;;;;;;-1.13;85.58;100356.88;5063322;28;20531;-78
2021/10/26 04:28:45;;;;;;;0.70;0.70;;;;;;;-1.14;85.26;100346.31;5060517;28;20067;-77
2021/10/26 04:31:13;;;;;;;0.70;0.70;;;;;;;-1.16;85.92;100340.22;5069425;28;20497;-76
2021/10/26 04:33:39;;;;;;;0.70;0.70;;;;;;;-1.13;85.59;100342.72;5045416;28;20067;-74
2021/10/26 04:36:05;;;;;;;0.70;0.70;;;;;;;-1.08;85.60;100344.28;5064695;28;20484;-72
2021/10/26 04:38:31;;;;;;;0.70;0.70;;;;;;;-1.06;85.47;100346.88;5077111;28;20059;-73
2021/10/26 04:40:57;;;;;;;0.63;0.63;;;;;;;-0.99;85.59;100338.63;5060380;28;20055;-73
2021/10/26 04:43:27;;;;;;;0.70;0.70;;;;;;;-0.96;85.03;100332.31;5093645;28;20560;-74
2021/10/26 04:45:54;;;;;;;0.70;0.70;;;;;;;-0.92;85.13;100339.22;5076609;28;20044;-72
2021/10/26 04:48:22;;;;;;;0.70;0.70;;;;;;;-0.88;84.71;100346.13;5076456;28;20056;-72
2021/10/26 04:50:49;;;;;;;0.70;0.70;;;;;;;-0.90;84.65;100325.91;5027360;28;20162;-73
2021/10/26 04:53:15;;;;;;;0.70;0.70;;;;;;;-0.82;84.37;100340.56;5070367;28;20148;-72
2021/10/26 04:55:49;;;;;;;0.70;0.70;;;;;;;-0.73;84.09;100340.22;5058774;28;20051;-71
2021/10/26 04:58:16;;;;;;;0.70;0.70;;;;;;;-0.62;83.22;100330.91;5044848;28;20044;-75
2021/10/26 05:00:44;;;;;;;0.70;0.70;;;;;;;-0.51;83.23;100328.72;5047259;28;20129;-75
2021/10/26 05:03:11;;;;;;;0.70;0.70;;;;;;;-0.33;82.15;100337.66;5053687;28;20104;-78
2021/10/26 05:05:39;;;;;;;0.70;0.70;;;;;;;-0.25;81.47;100336.44;5037536;28;20048;-72
2021/10/26 05:08:07;;;;;;;0.70;0.70;;;;;;;-0.08;80.92;100337.47;5063413;28;20466;-78
2021/10/26 05:10:33;;;;;;;0.70;0.70;;;;;;;0.00;80.44;100335.38;5029639;28;20048;-70
2021/10/26 05:13:00;;;;;;;0.70;0.70;;;;;;;0.02;80.57;100314.88;5039809;28;20558;-78
2021/10/26 05:15:45;;;;;;;0.70;0.70;;;;;;;0.18;79.59;100323.91;5059921;28;20210;-71
2021/10/26 05:18:35;;;;;;;0.70;0.70;;;;;;;0.23;78.86;100318.38;5061876;28;20431;-69
2021/10/26 05:21:30;;;;;;;0.70;0.70;;;;;;;0.33;78.28;100310.81;5054936;28;20128;-73
2021/10/26 05:24:16;;;;;;;0.70;0.70;;;;;;;0.53;78.04;100317.91;5058937;28;20475;-78
2021/10/26 05:26:48;;;;;;;;;;;;;;;0.62;77.68;100317.47;5043392;28;20129;-74
2021/10/26 05:29:14;;;;;;;0.80;0.80;;;;;;;0.89;76.41;100318.81;5053239;28;19916;-75
2021/10/26 05:31:44;;;;;;;0.73;0.73;;;;;;;0.78;76.21;100317.63;5035372;28;20072;-72
2021/10/26 05:34:10;;;;;;;0.70;0.70;;;;;;;0.77;75.87;100316.75;5061168;28;20365;-75
2021/10/26 05:36:37;;;;;;;0.80;0.80;;;;;;;0.78;76.47;100320.28;5039737;28;20468;-74
2021/10/26 05:39:06;;;;;;;0.80;0.80;;;;;;;0.91;75.83;100318.72;5042787;28;20051;-75
2021/10/26 05:41:36;;;;;;;0.80;0.80;;;;;;;0.89;75.59;100316.16;5059723;28;20143;-74
2021/10/26 05:44:03;;;;;;;0.80;0.80;;;;;;;0.94;75.18;100314.13;5057712;28;20052;-75
2021/10/26 05:46:30;;;;;;;0.90;0.90;;;;;;;1.29;73.75;100313.34;5044699;28;20528;-77
2021/10/26 05:48:56;;;;;;;1.00;1.00;;;;;;;1.68;72.71;100316.69;5062751;28;20275;-74
2021/10/26 05:51:23;;;;;;;1.00;1.00;;;;;;;2.23;70.42;100317.38;5056277;28;20086;-74
2021/10/26 05:53:49;;;;;;;1.00;1.00;;;;;;;2.68;68.44;100307.84;5043570;28;20048;-72
2021/10/26 05:56:15;;;;;;;1.00;1.00;;;;;;;2.89;67.49;100311.97;5086801;28;20048;-74
2021/10/26 05:58:41;;;;;;;0.90;0.90;;;;;;;2.90;67.38;100303.00;5017101;28;20518;-74
2021/10/26 06:01:07;;;;;;;0.80;0.80;;;;;;;3.11;66.62;100303.63;5051719;28;20410;-74
2021/10/26 06:03:33;;;;;;;0.90;0.90;;;;;;;2.97;67.11;100309.72;5094591;28;20063;-77
2021/10/26 06:05:59;;;;;;;0.90;0.90;;;;;;;3.39;65.67;100311.72;5054923;28;20064;-67
2021/10/26 06:08:25;;;;;;;0.90;0.90;;;;;;;3.27;65.40;100311.59;5072910;28;20074;-78
2021/10/26 06:10:59;;;;;;;0.80;0.80;;;;;;;3.34;65.39;100307.63;5046177;28;20077;-76
2021/10/26 06:16:30;;;;;;;1.00;1.00;;;;;;;3.10;66.38;100310.75;5560746;23;20487;-75
2021/10/26 06:18:56;;;;;;;0.95;0.95;;;;;;;3.44;65.17;100311.50;4894265;29;20126;-76
2021/10/26 06:21:22;;;;;;;0.90;0.90;;;;;;;3.59;64.45;100302.56;4884633;29;20519;-74
2021/10/26 06:23:48;;;;;;;0.90;0.90;;;;;;;3.69;64.18;100312.69;4889929;29;20047;-73
2021/10/26 06:26:14;;;;;;;1.00;1.00;;;;;;;3.86;63.40;100317.91;4861983;29;20052;-71
2021/10/26 06:28:53;;;;;;;1.00;1.00;;;;;;;3.81;63.62;100306.63;4842270;29;20048;-73
2021/10/26 06:31:19;;;;;;;0.90;0.90;;;;;;;3.93;63.29;100310.38;4878632;29;20059;-73
2021/10/26 06:33:48;;;;;;;0.90;0.90;;;;;;;3.73;63.64;100298.19;4881706;29;20089;-72
2021/10/26 06:36:19;;;;;;;0.80;0.80;;;;;;;4.17;62.51;100313.34;4864430;29;20105;-78
2021/10/26 06:38:46;;;;;;;0.90;0.90;;;;;;;4.19;62.27;100298.94;4880810;29;20111;-71
2021/10/26 06:41:12;;;;;;;1.00;1.00;;;;;;;4.11;62.69;100296.72;4866764;29;20532;-71
2021/10/26 06:43:40;;;;;;;1.20;1.20;;;;;;;4.32;61.92;100297.22;4890005;29;20048;-70
2021/10/26 06:46:25;;;;;;;1.00;1.00;;;;;;;4.73;60.21;100284.84;4878701;29;20052;-69
2021/10/26 06:49:11;;;;;;;1.10;1.10;;;;;;;5.19;59.00;100289.88;4896349;29;20484;-70
2021/10/26 06:51:56;;;;;;;1.10;1.10;;;;;;;5.40;57.66;100279.56;4889641;29;20413;-69
2021/10/26 06:54:42;;;;;;;1.20;1.20;;;;;;;6.15;56.11;100287.88;4882297;29;20068;-71
2021/10/26 06:57:28;;;;;;;1.10;1.10;;;;;;;6.61;54.81;100295.34;4884264;29;20056;-71
2021/10/26 07:00:14;;;;;;;1.00;1.00;;;;;;;6.67;54.70;100286.84;4870802;29;20552;-71
2021/10/26 07:03:03;;;;;;;1.00;1.00;;;;;;;7.71;51.45;100288.03;4884584;29;20088;-68
2021/10/26 07:06:02;;;;;;;0.80;0.80;;;;;;;6.70;53.68;100278.56;4882737;29;20048;-70
2021/10/26 07:08:31;;;;;;;1.60;1.60;;;;;;;7.16;52.88;100275.19;4905580;29;20440;-72
2021/10/26 07:11:16;;;;;;;0.80;0.80;;;;;;;7.41;51.55;100277.75;4874145;29;20063;-72
2021/10/26 07:13:42;;;;;;;1.50;1.50;;;;;;;8.59;49.14;100260.53;4889783;29;20548;-74
2021/10/26 07:16:08;;;;;;;1.10;1.10;;;;;;;8.49;48.60;100261.38;4867267;29;20077;-70
2021/10/26 07:18:35;;;;;;;1.00;1.00;;;;;;;8.53;48.64;100268.22;4850145;29;20049;-71
2021/10/26 07:21:01;;;;;;;1.30;1.30;;;;;;;8.44;48.48;100265.28;4897608;29;20062;-72
2021/10/26 07:24:03;;;;;;;1.00;1.00;;;;;;;7.91;49.93;100251.50;4826160;29;20529;-72
2021/10/26 07:26:36;;;;;;;1.00;1.00;;;;;;;8.23;49.03;100264.28;4871233;29;20142;-70
2021/10/26 07:29:03;;;;;;;1.10;1.10;;;;;;;8.07;49.67;100269.13;4872119;29;20056;-74
2021/10/26 07:31:30;;;;;;;1.10;1.10;;;;;;;8.28;49.35;100272.84;4878295;29;20056;-70
2021/10/26 07:34:00;;;;;;;1.20;1.20;;;;;;;8.50;48.25;100260.38;4888293;29;20114;-72
2021/10/26 07:36:39;;;;;;;1.17;1.17;;;;;;;8.23;49.27;100266.97;4885152;29;20063;-72
2021/10/26 07:39:09;;;;;;;1.40;1.40;;;;;;;8.77;47.46;100260.84;4884652;29;20063;-71
2021/10/26 07:41:35;;;;;;;1.20;1.20;;;;;;;9.22;46.44;100266.16;4889889;29;20413;-74
2021/10/26 07:44:20;;;;;;;1.10;1.10;;;;;;;9.52;46.48;100272.66;4895876;29;20056;-70
2021/10/26 07:47:09;;;;;;;1.10;1.10;;;;;;;10.99;43.32;100255.25;4894508;29;20056;-71
2021/10/26 07:49:35;;;;;;;1.20;1.20;;;;;;;11.69;41.90;100252.47;4850585;29;20448;-72
2021/10/26 07:52:05;;;;;;;1.20;1.20;;;;;;;12.39;39.84;100253.06;4880702;29;20591;-71
2021/10/26 07:54:31;;;;;;;1.00;1.00;;;;;;;12.25;40.12;100243.56;4849675;29;20053;-71
2021/10/26 07:57:00;;;;;;;1.10;1.10;;;;;;;11.85;40.47;100250.09;4897066;29;20079;-70
2021/10/26 07:59:26;;;;;;;1.00;1.00;;;;;;;11.94;40.28;100240.22;4880957;29;20457;-71
2021/10/26 08:01:52;;;;;;;1.00;1.00;;;;;;;12.01;40.23;100241.34;4881006;29;20056;-70
2021/10/26 08:04:18;;;;;;;0.70;0.70;;;;;;;10.50;42.74;100237.19;4864225;29;20064;-71
2021/10/26 08:06:54;;;;;;;1.10;1.10;;;;;;;10.18;44.47;100246.25;4866930;29;20055;-70
2021/10/26 08:09:20;;;;;;;1.00;1.00;;;;;;;9.62;45.58;100250.16;4866160;29;20139;-72
2021/10/26 08:11:47;;;;;;;1.10;1.10;;;;;;;10.05;44.43;100232.09;4897662;29;20060;-70
2021/10/26 08:14:13;;;;;;;1.00;1.00;;;;;;;10.70;43.30;100233.56;4868338;29;20080;-72
2021/10/26 08:16:40;;;;;;;0.90;0.90;;;;;;;11.47;41.64;100242.78;4880775;29;20093;-71
2021/10/26 08:19:06;;;;;;;0.80;0.80;;;;;;;10.92;42.67;100226.22;4839209;29;20045;-71
2021/10/26 08:21:36;;;;;;;0.80;0.80;;;;;;;10.38;43.46;100223.78;4869741;29;20065;-71
2021/10/26 08:24:03;;;;;;;1.00;1.00;;;;;;;10.68;43.52;100211.22;4876918;29;20139;-72
2021/10/26 08:26:38;;;;;;;0.90;0.90;;;;;;;10.52;43.72;100218.97;4880691;29;20153;-72
2021/10/26 08:34:51;;;;;;;0.90;0.90;;;;;;;11.54;41.64;100225.81;4864736;29;20579;-71
2021/10/26 08:37:17;;;;;;;0.80;0.80;;;;;;;10.67;42.66;100219.44;4883954;29;20048;-71
2021/10/26 08:39:57;;;;;;;0.80;0.80;;;;;;;9.59;45.53;100230.66;4875251;29;20378;-70
2021/10/26 08:42:23;;;;;;;0.90;0.90;;;;;;;9.08;46.99;100220.59;4875007;29;20164;-70
2021/10/26 08:44:51;;;;;;;1.10;1.10;;;;;;;9.10;47.23;100221.28;4872692;29;20085;-71
2021/10/26 08:47:17;;;;;;;0.80;0.80;;;;;;;9.87;45.18;100224.63;4886332;29;20509;-71
2021/10/26 08:50:06;;;;;;;1.00;1.00;;;;;;;10.61;43.84;100220.88;4888335;29;20167;-71
2021/10/26 08:52:38;;;;;;;0.80;0.80;;;;;;;9.89;44.52;100216.38;4888125;29;20091;-72
2021/10/26 08:55:27;;;;;;;0.70;0.70;;;;;;;8.76;47.58;100205.22;4882352;29;20214;-72
2021/10/26 08:58:21;;;;;;;0.60;0.60;;;;;;;8.74;48.27;100207.19;4856655;29;20183;-70
2021/10/26 09:00:53;;;;;;;0.70;0.70;;;;;;;8.02;49.59;100204.88;4877638;29;20147;-71
2021/10/26 09:03:29;;;;;;;0.80;0.80;;;;;;;8.13;49.38;100204.03;4856277;29;20459;-70
2021/10/26 09:05:57;;;;;;;0.90;0.90;;;;;;;8.13;49.14;100190.56;4869978;29;20067;-71
2021/10/26 09:08:28;;;;;;;0.80;0.80;;;;;;;8.66;48.51;100198.88;4869172;29;20075;-71
2021/10/26 09:11:19;;;;;;;;;;;;;;;8.67;48.24;100195.22;4878853;29;20465;-71
2021/10/26 09:17:28;;;;;;;0.80;0.80;;;;;;;8.65;48.41;100198.00;4887415;29;20057;-70
2021/10/26 09:20:36;;;;;;;1.10;1.10;;;;;;;8.99;47.48;100188.97;4895235;29;20079;-73
2021/10/26 09:23:07;;;;;;;1.10;1.10;;;;;;;9.37;46.43;100191.16;4857287;29;20108;-69
2021/10/26 09:25:42;;;;;;;1.00;1.00;;;;;;;10.11;45.05;100183.78;4857806;29;20056;-72
2021/10/26 09:28:14;;;;;;;1.10;1.10;;;;;;;10.01;44.59;100198.25;4877455;29;20091;-71
2021/10/26 09:30:42;;;;;;;1.10;1.10;;;;;;;9.87;44.99;100180.53;4860948;29;20147;-71
2021/10/26 09:33:11;;;;;;;1.10;1.10;;;;;;;10.45;43.71;100179.97;4861476;29;20135;-70
2021/10/26 09:35:41;;;;;;;1.10;1.10;;;;;;;10.42;43.74;100180.25;4876460;29;20207;-70
2021/10/26 09:38:08;;;;;;;1.10;1.10;;;;;;;11.30;41.99;100171.28;4875758;29;20065;-71
2021/10/26 09:40:42;;;;;;;1.00;1.00;;;;;;;11.99;40.28;100167.47;4820893;29;20061;-71
2021/10/26 09:43:11;;;;;;;1.08;1.08;;;;;;;11.30;41.67;100164.00;4839912;29;20064;-72
2021/10/26 09:45:38;;;;;;;1.00;1.00;;;;;;;11.68;40.92;100162.25;4855777;29;20478;-71
2021/10/26 09:48:17;;;;;;;0.90;0.90;;;;;;;11.69;40.83;100153.09;4840138;29;20057;-70
2021/10/26 09:50:44;;;;;;;1.00;1.00;;;;;;;12.42;39.24;100150.59;4825462;29;20145;-70
2021/10/26 09:53:15;;;;;;;0.90;0.90;;;;;;;11.55;40.54;100137.31;4829969;29;20057;-70
2021/10/26 09:55:51;;;;;;;0.90;0.90;;;;;;;11.61;40.84;100144.88;4847711;29;20056;-71
2021/10/26 09:58:22;;;;;;;1.00;1.00;;;;;;;11.92;40.34;100139.25;4878397;29;20143;-72
2021/10/26 10:00:51;;;;;;;1.00;1.00;;;;;;;12.67;38.75;100143.59;4863082;29;20145;-72
2021/10/26 10:03:25;;;;;;;0.80;0.80;;;;;;;12.51;39.04;100129.84;4879335;29;20067;-72
2021/10/26 10:06:01;;;;;;;1.00;1.00;;;;;;;12.37;39.19;100133.94;4853329;29;20074;-69
2021/10/26 10:08:35;;;;;;;1.05;1.05;;;;;;;12.30;39.36;100128.25;4860205;29;20143;-72
2021/10/26 10:11:11;;;;;;;1.00;1.00;;;;;;;11.92;39.95;100118.44;4892496;29;20086;-70
2021/10/26 10:13:43;;;;;;;1.00;1.00;;;;;;;11.98;39.83;100120.53;4894993;29;20056;-70
2021/10/26 10:16:16;;;;;;;1.10;1.10;;;;;;;12.01;39.73;100113.97;4870234;29;20104;-68
2021/10/26 10:18:43;;;;;;;1.00;1.00;;;;;;;12.29;39.52;100121.13;4903935;29;20056;-71
2021/10/26 10:21:13;;;;;;;0.90;0.90;;;;;;;11.83;39.94;100101.22;4911557;29;20432;-71
2021/10/26 10:23:44;;;;;;;0.90;0.90;;;;;;;12.31;39.26;100101.97;4874483;29;20059;-71
2021/10/26 10:26:24;;;;;;;0.90;0.90;;;;;;;11.60;40.25;100091.72;4877168;29;20057;-70
2021/10/26 10:28:50;;;;;;;0.90;0.90;;;;;;;12.29;38.98;100104.84;4888906;29;20059;-70
2021/10/26 10:31:23;;;;;;;0.90;0.90;;;;;;;12.26;38.99;100098.88;4864304;29;20060;-70
2021/10/26 10:33:50;;;;;;;0.90;0.90;;;;;;;12.48;39.17;100092.19;4894960;29;20056;-69
2021/10/26 10:36:17;;;;;;;0.90;0.90;;;;;;;12.94;38.88;100087.53;4861709;29;20097;-67
2021/10/26 10:38:43;;;;;;;0.90;0.90;;;;;;;13.14;38.09;100088.25;4878713;29;20048;-72
2021/10/26 10:41:27;;;;;;;0.80;0.80;;;;;;;13.01;39.90;100075.06;4862103;29;20580;-72
2021/10/26 10:43:56;;;;;;;0.80;0.80;;;;;;;12.28;39.28;100076.03;4850852;29;20118;-71
2021/10/26 10:46:42;;;;;;;0.70;0.70;;;;;;;11.92;39.99;100079.63;4888396;29;20056;-69
2021/10/26 10:49:23;;;;;;;0.80;0.80;;;;;;;11.90;39.98;100073.53;4874787;29;20047;-69
2021/10/26 10:52:00;;;;;;;0.70;0.70;;;;;;;11.92;39.65;100082.34;4895612;29;20136;-69
2021/10/26 10:54:38;;;;;;;0.90;0.90;;;;;;;11.27;41.00;100061.44;4853721;29;20196;-75
2021/10/26 10:57:24;;;;;;;0.80;0.80;;;;;;;11.43;39.99;100054.56;4894202;29;20063;-75
2021/10/26 10:59:49;;;;;;;0.80;0.80;;;;;;;11.54;40.05;100059.81;4877517;29;20064;-70
2021/10/26 11:02:26;;;;;;;0.80;0.80;;;;;;;11.42;40.45;100045.59;4866255;29;20523;-67
2021/10/26 11:04:54;;;;;;;0.70;0.70;;;;;;;11.48;40.27;100038.72;4866902;29;20116;-70
2021/10/26 11:07:41;;;;;;;0.80;0.80;;;;;;;12.06;39.27;100047.47;4876250;29;20112;-70
2021/10/26 11:10:13;;;;;;;0.70;0.70;;;;;;;11.80;39.35;100032.91;4874913;29;20044;-69
2021/10/26 11:12:39;;;;;;;0.80;0.80;;;;;;;12.24;38.71;100035.81;4861702;29;20064;-68
2021/10/26 11:15:11;;;;;;;0.80;0.80;;;;;;;12.61;37.61;100032.97;4876430;29;20045;-68
2021/10/26 11:17:40;;;;;;;0.80;0.80;;;;;;;13.19;36.45;100010.72;4860293;29;20516;-68
2021/10/26 11:20:07;;;;;;;0.80;0.80;;;;;;;13.01;35.81;100024.34;4886118;29;20494;-66
2021/10/26 11:22:45;;;;;;;0.60;0.60;;;;;;;12.58;36.29;100027.91;4866473;29;20056;-67
2021/10/26 11:25:35;;;;;;;0.70;0.70;;;;;;;12.52;36.47;100042.06;4879798;29;20075;-69
2021/10/26 11:28:25;;;;;;;0.80;0.80;;;;;;;12.72;36.23;100024.63;4890810;29;20135;-66
2021/10/26 11:30:55;;;;;;;0.73;0.73;;;;;;;12.41;36.61;100032.28;4898600;29;20052;-70
2021/10/26 11:33:24;;;;;;;0.80;0.80;;;;;;;12.75;35.77;100026.16;4878461;29;20060;-70
2021/10/26 11:36:04;;;;;;;0.80;0.80;;;;;;;13.80;34.05;100029.81;4877021;29;20490;-72
2021/10/26 11:38:52;;;;;;;0.70;0.70;;;;;;;13.73;34.21;100027.72;4881310;29;20051;-68
2021/10/26 11:41:29;;;;;;;0.60;0.60;;;;;;;13.71;34.11;100021.63;4868130;29;20151;-68
2021/10/26 11:43:58;;;;;;;0.50;0.50;;;;;;;13.48;34.51;100015.88;4881992;29;20063;-68
2021/10/26 11:46:24;;;;;;;0.60;0.60;;;;;;;13.18;34.88;100011.75;4883787;29;20523;-67
2021/10/26 11:48:57;;;;;;;0.50;0.50;;;;;;;12.52;36.36;100004.09;4873735;29;20187;-66
2021/10/26 11:51:40;;;;;;;0.50;0.50;;;;;;;12.22;36.60;100013.47;4879713;29;20092;-68
2021/10/26 11:54:24;;;;;;;0.55;0.55;;;;;;;12.31;36.68;100018.78;4891159;29;20178;-73